SCIE 160600Z 00000KT 9999 SCT042 13/11 Q1014